createdAt,value
2022-12-15T00:06:13.138Z,98887.91
2022-12-15T00:08:58.859Z,98883.34
2022-12-15T00:11:45.410Z,98887.09
2022-12-15T00:14:30.459Z,98886.28
2022-12-15T00:17:34.573Z,98889.19
2022-12-15T00:20:19.592Z,98892.72
2022-12-15T00:23:04.919Z,98898.09
2022-12-15T00:25:50.003Z,98894.59
2022-12-15T00:28:36.288Z,98889.19
2022-12-15T00:31:21.280Z,98902.66
2022-12-15T00:34:06.536Z,98903.72
2022-12-15T00:36:51.538Z,98919.84
2022-12-15T00:39:19.139Z,98934.09
2022-12-15T00:41:46.786Z,98945.69
2022-12-15T00:44:20.372Z,98933.28
2022-12-15T00:47:05.665Z,98940.28
2022-12-15T00:49:50.912Z,98944.59
2022-12-15T00:52:36.594Z,98948.13
2022-12-15T00:55:21.482Z,98956.22
2022-12-15T00:58:06.568Z,98972.09
2022-12-15T01:00:53.132Z,98975.84
2022-12-15T01:03:38.883Z,98975.03
2022-12-15T01:06:25.038Z,98976.06
2022-12-15T01:09:09.999Z,98968.81
2022-12-15T01:11:55.233Z,98974.19
2022-12-15T01:14:40.097Z,98970.94
2022-12-15T01:20:42.067Z,98977.13
2022-12-15T01:23:09.725Z,98973.84
2022-12-15T01:25:37.332Z,98966.59
2022-12-15T01:28:05.258Z,98956.91
2022-12-15T01:30:32.921Z,98958.53
2022-12-15T01:33:00.590Z,98951.53
2022-12-15T01:35:28.754Z,98944.50
2022-12-15T01:37:57.729Z,98956.09
2022-12-15T01:40:42.917Z,98950.72
2022-12-15T01:43:11.788Z,98953.41
2022-12-15T01:45:49.534Z,98959.59
2022-12-15T01:48:39.278Z,98961.47
2022-12-15T01:51:11.635Z,98960.63
2022-12-15T01:53:44.348Z,98964.16
2022-12-15T01:56:12.253Z,98964.72
2022-12-15T01:58:39.902Z,98962.28
2022-12-15T02:01:07.624Z,98967.19
2022-12-15T02:03:35.901Z,98974.44
2022-12-15T02:06:03.752Z,98967.19
2022-12-15T02:08:31.398Z,98962.63
2022-12-15T02:11:03.981Z,98957.50
2022-12-15T02:13:33.144Z,98969.06
2022-12-15T02:16:03.239Z,98984.59
2022-12-15T02:18:33.427Z,98981.91
2022-12-15T02:21:01.369Z,98999.94
2022-12-15T02:23:47.041Z,98992.91
2022-12-15T02:26:28.066Z,98971.38
2022-12-15T02:28:57.776Z,98959.00
2022-12-15T02:31:46.500Z,98958.19
2022-12-15T02:34:20.837Z,98952.00
2022-12-15T02:36:48.741Z,98953.63
2022-12-15T02:39:16.525Z,98952.81
2022-12-15T02:41:44.843Z,98962.75
2022-12-15T02:44:13.545Z,98960.28
2022-12-15T02:46:51.966Z,98963.78
2022-12-15T02:49:21.201Z,98972.66
2022-12-15T02:51:49.745Z,98972.91
2022-12-15T02:54:24.345Z,98969.16
2022-12-15T02:56:54.016Z,98964.84
2022-12-15T02:59:22.520Z,98964.03
2022-12-15T03:01:52.995Z,98967.53
2022-12-15T03:04:20.789Z,98973.72
2022-12-15T03:07:00.423Z,98972.91
2022-12-15T03:09:28.667Z,98977.50
2022-12-15T03:11:56.340Z,98987.41
2022-12-15T03:14:25.516Z,98974.78
2022-12-15T03:16:54.665Z,98990.09
2022-12-15T03:19:22.332Z,98998.16
2022-12-15T03:21:49.990Z,98998.16
2022-12-15T03:24:17.657Z,98992.78
2022-12-15T03:26:48.610Z,98996.53
2022-12-15T03:29:16.243Z,98988.47
2022-12-15T03:31:44.379Z,98994.91
2022-12-15T03:37:45.234Z,99007.28
2022-12-15T03:40:14.281Z,99009.97
2022-12-15T03:42:52.707Z,99025.28
2022-12-15T03:45:21.352Z,99015.34
2022-12-15T03:48:15.662Z,99032.53
2022-12-15T03:50:44.564Z,99044.94
2022-12-15T03:53:13.671Z,99054.06
2022-12-15T03:55:41.313Z,99056.75
2022-12-15T03:58:08.932Z,99058.38
2022-12-15T04:00:36.712Z,99052.19
2022-12-15T04:06:36.053Z,99050.91
2022-12-15T04:09:05.151Z,99068.66
2022-12-15T04:11:32.835Z,99074.03
2022-12-15T04:14:00.508Z,99078.38
2022-12-15T04:16:28.253Z,99083.75
2022-12-15T04:19:09.736Z,99075.69
2022-12-15T04:21:37.417Z,99080.00
2022-12-15T04:24:24.700Z,99078.38
2022-12-15T04:27:09.867Z,99077.31
2022-12-15T04:29:54.733Z,99082.69
2022-12-15T04:32:39.694Z,99067.84
2022-12-15T04:35:25.225Z,99077.78
2022-12-15T04:38:10.239Z,99084.19
2022-12-15T04:40:56.866Z,99086.88
2022-12-15T04:43:41.939Z,99089.56
2022-12-15T04:46:27.253Z,99101.38
2022-12-15T04:49:12.402Z,99104.09
2022-12-15T04:51:57.279Z,99112.16
2022-12-15T04:54:42.238Z,99112.16
2022-12-15T04:57:28.697Z,99114.03
2022-12-15T05:00:13.752Z,99111.34
2022-12-15T05:02:58.694Z,99118.81
2022-12-15T05:05:43.822Z,99133.66
2022-12-15T05:08:28.976Z,99133.06
2022-12-15T05:11:14.434Z,99124.19
2022-12-15T05:14:01.050Z,99128.75
2022-12-15T05:16:46.053Z,99141.13
2022-12-15T05:23:03.636Z,99145.22
2022-12-15T05:25:48.826Z,99145.22
2022-12-15T05:28:33.706Z,99140.66
2022-12-15T05:31:20.050Z,99146.63
2022-12-15T05:34:26.205Z,99149.31
2022-12-15T05:36:53.871Z,99149.31
2022-12-15T05:39:21.545Z,99151.19
2022-12-15T05:41:49.205Z,99146.03
2022-12-15T05:44:17.411Z,99146.03
2022-12-15T05:46:46.640Z,99144.41
2022-12-15T05:49:33.406Z,99154.34
2022-12-15T05:52:01.041Z,99164.28
2022-12-15T05:54:28.721Z,99155.16
2022-12-15T05:56:56.336Z,99163.44
2022-12-15T05:59:24.029Z,99179.59
2022-12-15T06:01:54.308Z,99181.25
2022-12-15T06:04:40.284Z,99181.25
2022-12-15T06:07:07.982Z,99184.75
2022-12-15T06:09:35.655Z,99186.38
2022-12-15T06:12:03.258Z,99195.28
2022-12-15T06:14:31.662Z,99201.47
2022-12-15T06:17:00.988Z,99208.50
2022-12-15T06:19:28.692Z,99214.69
2022-12-15T06:21:56.359Z,99204.78
2022-12-15T06:24:24.761Z,99217.97
2022-12-15T06:26:52.437Z,99219.84
2022-12-15T06:29:20.091Z,99230.38
2022-12-15T06:31:47.841Z,99229.31
2022-12-15T06:37:48.868Z,99218.09
2022-12-15T06:40:16.638Z,99232.38
2022-12-15T06:42:44.264Z,99230.28
2022-12-15T06:45:12.157Z,99235.66
2022-12-15T06:47:39.820Z,99246.41
2022-12-15T06:53:41.978Z,99254.28
2022-12-15T06:56:10.058Z,99248.03
2022-12-15T06:58:37.674Z,99253.44
2022-12-15T07:01:06.087Z,99252.63
2022-12-15T07:04:05.757Z,99255.09
2022-12-15T07:06:36.460Z,99252.41
2022-12-15T07:09:07.247Z,99253.22
2022-12-15T07:11:35.331Z,99256.72
2022-12-15T07:14:03.271Z,99262.91
2022-12-15T07:16:31.354Z,99264.78
2022-12-15T07:18:59.015Z,99263.75
2022-12-15T07:21:26.672Z,99264.31
2022-12-15T07:23:56.383Z,99264.09
2022-12-15T07:26:26.108Z,99270.09
2022-12-15T07:28:54.467Z,99276.06
2022-12-15T07:31:22.504Z,99283.06
2022-12-15T07:37:12.299Z,99281.34
2022-12-15T07:39:39.928Z,99279.25
2022-12-15T07:42:09.070Z,99281.69
2022-12-15T07:44:36.716Z,99281.47
2022-12-15T07:47:04.320Z,99294.72
2022-12-15T07:49:32.014Z,99301.50
2022-12-15T07:51:59.877Z,99296.94
2022-12-15T07:54:27.496Z,99290.50
2022-12-15T07:56:55.158Z,99294.00
2022-12-15T07:59:24.175Z,99290.28
2022-12-15T08:01:52.477Z,99302.69
2022-12-15T08:04:20.552Z,99298.94
2022-12-15T08:06:48.166Z,99302.47
2022-12-15T08:09:15.839Z,99302.22
2022-12-15T08:11:43.452Z,99299.53
2022-12-15T08:14:16.921Z,99304.69
2022-12-15T08:16:46.952Z,99299.31
2022-12-15T08:19:15.413Z,99307.13
2022-12-15T08:21:43.557Z,99311.50
2022-12-15T08:24:11.229Z,99320.16
2022-12-15T08:26:40.732Z,99326.38
2022-12-15T08:29:48.735Z,99325.31
2022-12-15T08:31:58.244Z,99326.13
2022-12-15T08:37:47.746Z,99343.47
2022-12-15T08:40:15.433Z,99348.84
2022-12-15T08:42:43.133Z,99346.16
2022-12-15T08:45:11.326Z,99348.38
2022-12-15T08:47:40.595Z,99341.94
2022-12-15T08:53:42.541Z,99346.66
2022-12-15T08:56:12.366Z,99349.16
2022-12-15T08:58:40.195Z,99352.88
2022-12-15T09:01:08.294Z,99357.81
2022-12-15T09:03:37.353Z,99356.41
2022-12-15T09:09:43.777Z,99378.78
2022-12-15T09:12:12.037Z,99376.06
2022-12-15T09:14:39.650Z,99366.34
2022-12-15T09:17:07.419Z,99351.84
2022-12-15T09:23:00.309Z,99346.66
2022-12-15T09:25:27.963Z,99350.19
2022-12-15T09:27:55.677Z,99343.78
2022-12-15T09:30:23.272Z,99339.19
2022-12-15T09:32:50.889Z,99327.63
2022-12-15T09:35:18.530Z,99334.03
2022-12-15T09:37:51.615Z,99323.06
2022-12-15T09:40:21.052Z,99324.69
2022-12-15T09:42:59.875Z,99331.72
2022-12-15T09:45:40.950Z,99336.03
2022-12-15T09:48:10.894Z,99337.47
2022-12-15T09:54:45.215Z,99332.22
2022-12-15T09:57:16.017Z,99333.84
2022-12-15T09:59:46.330Z,99332.81
2022-12-15T10:02:21.263Z,99335.50
2022-12-15T10:04:50.876Z,99342.28
2022-12-15T10:07:19.609Z,99339.34
2022-12-15T10:09:47.259Z,99330.25
2022-12-15T10:12:18.963Z,99328.97
2022-12-15T10:14:50.003Z,99333.06
2022-12-15T10:17:19.995Z,99326.41
2022-12-15T10:19:50.780Z,99325.13
2022-12-15T10:22:20.462Z,99321.34
2022-12-15T10:28:00.405Z,99321.72
2022-12-15T10:30:31.753Z,99319.13
2022-12-15T10:33:00.828Z,99303.34
2022-12-15T10:35:29.826Z,99309.09
2022-12-15T10:37:57.859Z,99304.03
2022-12-15T10:40:40.403Z,99303.56
2022-12-15T10:43:11.133Z,99297.75
2022-12-15T10:45:40.290Z,99294.56
2022-12-15T10:48:12.096Z,99293.50
2022-12-15T10:50:39.735Z,99303.81
2022-12-15T10:53:08.594Z,99297.13
2022-12-15T10:55:38.144Z,99297.94
2022-12-15T10:58:06.786Z,99295.84
2022-12-15T11:00:34.773Z,99304.28
2022-12-15T11:03:04.432Z,99300.31
2022-12-15T11:05:33.597Z,99303.56
2022-12-15T11:08:14.675Z,99294.00
2022-12-15T11:11:07.938Z,99301.84
2022-12-15T11:13:36.295Z,99299.72
2022-12-15T11:16:11.457Z,99298.44
2022-12-15T11:18:42.709Z,99294.13
2022-12-15T11:21:15.315Z,99281.22
2022-12-15T11:23:48.725Z,99288.25
2022-12-15T11:26:23.660Z,99286.13
2022-12-15T11:28:52.005Z,99286.97
2022-12-15T11:31:21.762Z,99286.72
2022-12-15T11:33:53.544Z,99288.34
2022-12-15T11:36:22.877Z,99284.59
2022-12-15T11:38:51.356Z,99286.25
2022-12-15T11:41:26.324Z,99279.56
2022-12-15T11:44:00.959Z,99278.72
2022-12-15T11:46:31.688Z,99269.59
2022-12-15T11:49:06.157Z,99280.38
2022-12-15T11:55:07.751Z,99286.09
2022-12-15T11:57:46.270Z,99292.31
2022-12-15T12:00:18.536Z,99293.16
2022-12-15T12:03:04.400Z,99292.91
2022-12-15T12:09:39.190Z,99285.19
2022-12-15T12:12:14.074Z,99283.31
2022-12-15T12:14:45.201Z,99293.00
2022-12-15T12:17:20.792Z,99298.41
2022-12-15T12:20:03.016Z,99289.28
2022-12-15T12:22:35.619Z,99297.38
2022-12-15T12:25:04.004Z,99310.84
2022-12-15T12:27:35.342Z,99314.59
2022-12-15T12:30:03.730Z,99327.03
2022-12-15T12:32:35.037Z,99318.94
2022-12-15T12:35:32.364Z,99299.22
2022-12-15T12:37:52.365Z,99281.19
2022-12-15T12:40:20.882Z,99279.53
2022-12-15T12:42:52.665Z,99289.28
2022-12-15T12:45:20.310Z,99282.22
2022-12-15T12:47:50.358Z,99288.44
2022-12-15T12:50:18.814Z,99281.41
2022-12-15T12:52:48.798Z,99285.75
2022-12-15T12:55:23.864Z,99296.78
2022-12-15T12:57:53.502Z,99309.44
2022-12-15T13:00:22.084Z,99305.91
2022-12-15T13:02:57.847Z,99302.41
2022-12-15T13:05:41.226Z,99297.25
2022-12-15T13:08:49.191Z,99296.66
2022-12-15T13:11:38.361Z,99299.38
2022-12-15T13:14:18.376Z,99304.50
2022-12-15T13:17:16.819Z,99312.59
2022-12-15T13:23:27.647Z,99302.28
2022-12-15T13:26:03.329Z,99281.19
2022-12-15T13:28:42.823Z,99280.38
2022-12-15T13:31:30.956Z,99282.50
2022-12-15T13:34:13.772Z,99301.38
2022-12-15T13:43:38.193Z,99309.44
2022-12-15T13:46:11.023Z,99324.00
2022-12-15T13:48:40.905Z,99325.03
2022-12-15T13:51:28.830Z,99323.63
2022-12-15T13:53:57.460Z,99315.78
2022-12-15T13:56:30.249Z,99327.06
2022-12-15T13:59:00.017Z,99320.00
2022-12-15T14:01:32.218Z,99324.59
2022-12-15T14:04:04.902Z,99332.88
2022-12-15T14:07:10.611Z,99340.97
2022-12-15T14:09:39.680Z,99336.66
2022-12-15T14:12:08.648Z,99341.22
2022-12-15T14:14:37.048Z,99345.81
2022-12-15T14:17:05.171Z,99342.53
2022-12-15T14:19:42.269Z,99337.13
2022-12-15T14:25:56.871Z,99337.56
2022-12-15T14:28:30.461Z,99344.84
2022-12-15T14:30:58.601Z,99350.47
2022-12-15T14:33:29.755Z,99349.06
2022-12-15T14:35:58.994Z,99350.13
2022-12-15T14:38:28.121Z,99355.72
2022-12-15T14:40:56.561Z,99358.41
2022-12-15T14:43:25.346Z,99368.59
2022-12-15T14:45:54.801Z,99368.00
2022-12-15T14:48:41.173Z,99371.78
2022-12-15T14:51:11.516Z,99377.41
2022-12-15T14:53:40.302Z,99379.25
2022-12-15T14:59:18.892Z,99368.13
2022-12-15T15:01:57.915Z,99360.28
2022-12-15T15:03:14.541Z,99372.25
2022-12-15T15:04:30.994Z,99356.75
2022-12-15T15:10:24.215Z,99366.13
2022-12-15T15:12:51.837Z,99357.44
2022-12-15T15:15:20.611Z,99365.53
2022-12-15T15:17:49.725Z,99361.22
2022-12-15T15:20:22.152Z,99364.13
2022-12-15T15:23:03.044Z,99361.69
2022-12-15T15:25:40.093Z,99362.50
2022-12-15T15:28:13.609Z,99367.88
2022-12-15T15:30:43.089Z,99362.75
2022-12-15T15:33:10.995Z,99362.75
2022-12-15T15:47:00.343Z,99373.13
2022-12-15T15:49:36.045Z,99366.34
2022-12-15T15:52:23.719Z,99356.63
2022-12-15T15:54:52.273Z,99362.03
2022-12-15T15:57:19.922Z,99364.94
2022-12-15T15:59:48.591Z,99374.88
2022-12-15T16:02:16.520Z,99377.00
2022-12-15T16:04:46.482Z,99377.81
2022-12-15T16:07:32.238Z,99369.97
2022-12-15T16:10:00.537Z,99367.28
2022-12-15T16:12:29.137Z,99365.66
2022-12-15T16:14:57.400Z,99368.34
2022-12-15T16:17:25.513Z,99369.38
2022-12-15T16:19:55.367Z,99374.75
2022-12-15T16:22:41.223Z,99380.41
2022-12-15T16:25:14.755Z,99381.22
2022-12-15T16:27:42.767Z,99381.22
2022-12-15T16:30:16.454Z,99380.63
2022-12-15T16:32:44.072Z,99379.78
2022-12-15T16:35:14.756Z,99384.13
2022-12-15T16:41:43.170Z,99391.38
2022-12-15T16:44:10.964Z,99386.00
2022-12-15T16:46:40.156Z,99386.00
2022-12-15T16:49:07.933Z,99379.78
2022-12-15T16:51:40.205Z,99376.28
2022-12-15T16:54:07.882Z,99375.44
2022-12-15T16:56:36.216Z,99373.00
2022-12-15T16:59:31.504Z,99382.13
2022-12-15T17:01:52.508Z,99385.06
2022-12-15T17:04:21.491Z,99376.97
2022-12-15T17:06:51.276Z,99377.78
2022-12-15T17:09:19.641Z,99370.78
2022-12-15T17:11:47.880Z,99374.50
2022-12-15T17:14:15.959Z,99374.50
2022-12-15T17:16:44.693Z,99379.06
2022-12-15T17:19:16.151Z,99382.56
2022-12-15T17:29:11.214Z,99385.72
2022-12-15T17:31:39.655Z,99397.31
2022-12-15T17:34:11.806Z,99406.47
2022-12-15T17:36:58.566Z,99413.72
2022-12-15T17:39:26.284Z,99414.75
2022-12-15T17:42:00.507Z,99424.72
2022-12-15T17:44:33.460Z,99420.13
2022-12-15T17:47:02.610Z,99422.63
2022-12-15T17:49:35.435Z,99408.34
2022-12-15T17:52:05.759Z,99415.34
2022-12-15T17:54:33.450Z,99409.97
2022-12-15T17:57:01.847Z,99406.69
2022-12-15T17:59:32.266Z,99400.00
2022-12-15T18:02:02.282Z,99396.50
2022-12-15T18:04:30.021Z,99404.59
2022-12-15T18:07:23.069Z,99399.66
2022-12-15T18:09:50.843Z,99386.19
2022-12-15T18:12:21.177Z,99383.72
2022-12-15T18:14:50.249Z,99382.91
2022-12-15T18:17:19.282Z,99382.91
2022-12-15T18:19:46.997Z,99382.09
2022-12-15T18:25:48.232Z,99370.50
2022-12-15T18:28:18.814Z,99375.06
2022-12-15T18:30:50.219Z,99364.53
2022-12-15T18:33:18.082Z,99364.53
2022-12-15T18:35:46.238Z,99365.34
2022-12-15T18:38:41.889Z,99356.44
2022-12-15T18:41:09.973Z,99352.94
2022-12-15T18:43:37.649Z,99353.16
2022-12-15T18:46:07.635Z,99353.75
2022-12-15T18:48:35.651Z,99352.13
2022-12-15T18:51:03.354Z,99355.63
2022-12-15T18:53:44.680Z,99344.03
2022-12-15T18:56:13.229Z,99350.25
2022-12-15T18:58:40.938Z,99344.03
2022-12-15T19:01:10.638Z,99345.66
2022-12-15T19:03:41.219Z,99351.88
2022-12-15T19:06:12.296Z,99345.66
2022-12-15T19:08:40.714Z,99346.47
2022-12-15T19:11:08.922Z,99336.53
2022-12-15T19:13:38.156Z,99336.53
2022-12-15T19:16:06.238Z,99337.38
2022-12-15T19:19:05.046Z,99325.75
2022-12-15T19:21:51.301Z,99315.00
2022-12-15T19:24:19.536Z,99315.00
2022-12-15T19:26:47.923Z,99304.22
2022-12-15T19:29:20.084Z,99299.09
2022-12-15T19:31:49.513Z,99297.19
2022-12-15T19:34:18.581Z,99302.59
2022-12-15T19:41:00.558Z,99299.09
2022-12-15T19:43:29.666Z,99297.19
2022-12-15T19:45:57.773Z,99307.97
2022-12-15T19:48:26.395Z,99314.19
2022-12-15T19:50:55.488Z,99310.66
2022-12-15T19:53:27.377Z,99308.78
2022-12-15T19:55:55.247Z,99301.78
2022-12-15T19:58:27.935Z,99302.59
2022-12-15T20:00:56.859Z,99294.50
2022-12-15T20:03:25.434Z,99286.44
2022-12-15T20:05:53.307Z,99284.56
2022-12-15T20:11:55.390Z,99277.28
2022-12-15T20:14:23.252Z,99274.59
2022-12-15T20:16:51.478Z,99257.41
2022-12-15T20:19:20.061Z,99251.22
2022-12-15T20:21:47.715Z,99227.78
2022-12-15T20:24:42.209Z,99230.50
2022-12-15T20:27:13.513Z,99208.34
2022-12-15T20:29:42.556Z,99203.78
2022-12-15T20:32:15.353Z,99201.91
2022-12-15T20:34:43.152Z,99201.91
2022-12-15T20:41:20.698Z,99192.41
2022-12-15T20:43:50.464Z,99199.69
2022-12-15T20:46:18.986Z,99191.59
2022-12-15T20:48:48.401Z,99186.22
2022-12-15T20:51:17.309Z,99169.47
2022-12-15T20:57:55.462Z,99124.78
2022-12-15T21:00:24.498Z,99118.31
2022-12-15T21:02:54.896Z,99126.41
2022-12-15T21:05:23.595Z,99120.19
2022-12-15T21:08:11.452Z,99119.38
2022-12-15T21:10:39.115Z,99123.16
2022-12-15T21:13:07.640Z,99126.66
2022-12-15T21:15:37.884Z,99125.84
2022-12-15T21:18:40.618Z,99137.16
2022-12-15T21:20:58.879Z,99147.94
2022-12-15T21:30:31.324Z,99141.50
2022-12-15T21:33:00.441Z,99138.00
2022-12-15T21:35:31.888Z,99146.09
2022-12-15T21:45:05.470Z,99127.69
2022-12-15T21:47:47.009Z,99127.47
2022-12-15T21:50:17.036Z,99106.16
2022-12-15T21:52:45.080Z,99124.19
2022-12-15T21:55:17.462Z,99127.94
2022-12-15T21:57:45.084Z,99129.56
2022-12-15T22:00:14.727Z,99122.56
2022-12-15T22:02:42.595Z,99114.69
2022-12-15T22:05:13.680Z,99112.25
2022-12-15T22:11:08.455Z,99095.50
2022-12-15T22:13:36.076Z,99105.44
2022-12-15T22:16:05.362Z,99102.97
2022-12-15T22:18:33.540Z,99100.28
2022-12-15T22:21:02.183Z,99104.84
2022-12-15T22:27:04.427Z,99109.41
2022-12-15T22:29:33.591Z,99112.34
2022-12-15T22:32:01.237Z,99104.50
2022-12-15T22:34:30.311Z,99092.09
2022-12-15T22:36:57.958Z,99081.31
2022-12-15T22:40:03.348Z,99068.94
2022-12-15T22:42:32.402Z,99072.66
2022-12-15T22:45:00.669Z,99077.00
2022-12-15T22:47:28.417Z,99067.28
2022-12-15T22:49:56.757Z,99050.56
2022-12-15T22:52:24.338Z,99052.44
2022-12-15T22:58:27.187Z,99033.84
2022-12-15T23:00:57.250Z,99030.06
2022-12-15T23:03:24.879Z,99026.81
2022-12-15T23:05:53.187Z,99029.50
2022-12-15T23:08:21.127Z,99026.81
2022-12-15T23:11:06.608Z,99012.78
2022-12-15T23:13:35.703Z,99003.03
2022-12-15T23:16:21.749Z,99002.81
2022-12-15T23:18:49.819Z,99021.44
2022-12-15T23:21:19.437Z,99028.44
2022-12-15T23:23:47.008Z,99020.97
2022-12-15T23:26:15.038Z,99022.00
2022-12-15T23:28:44.379Z,99027.16
2022-12-15T23:31:12.610Z,99029.03
2022-12-15T23:33:41.158Z,99023.66
2022-12-15T23:36:08.778Z,99020.16
2022-12-15T23:41:58.499Z,98966.31
2022-12-15T23:44:27.581Z,98970.88
2022-12-15T23:46:57.399Z,98980.81
2022-12-15T23:49:25.112Z,98982.69
2022-12-15T23:51:52.754Z,98979.19
2022-12-15T23:54:22.702Z,98975.91
2022-12-15T23:56:50.317Z,98967.03
2022-12-15T23:59:19.513Z,98965.38
